Time;durP1;ratioP1;P1;durP2;ratioP2;P2;SDS_P1;SDS_P2;PMS_P1;PMS_P2;Temp;Humidity;BMP_temperature;BMP_pressure;BME280_temperature;BME280_humidity;BME280_pressure;Samples;Min_cycle;Max_cycle;Signal;HPM_P1;HPM_P2
2022/05/08 00:01:49;;;;;;;;;;;;;;;21.69;28.00;98548.38;5038822;28;2158;-75
2022/05/08 00:04:14;;;;;;;;;;;;;;;21.51;28.22;98548.72;5016722;28;1044;-75
2022/05/08 00:06:40;;;;;;;;;;;;;;;21.33;28.27;98555.47;5015812;28;1981;-75
2022/05/08 00:09:05;;;;;;;;;;;;;;;21.19;28.77;98550.03;5015734;28;947;-75
2022/05/08 00:11:31;;;;;;;;;;;;;;;21.27;28.89;98551.50;5015687;28;998;-75
2022/05/08 00:13:56;;;;;;;;;;;;;;;21.22;28.72;98549.16;4995910;28;996;-74
2022/05/08 00:16:22;;;;;;;;;;;;;;;21.04;29.28;98548.66;4995283;28;2147;-76
2022/05/08 00:18:47;;;;;;;;;;;;;;;21.49;28.65;98554.00;4995995;28;1027;-75
2022/05/08 00:21:13;;;;;;;;;;;;;;;21.81;28.13;98556.25;4995960;28;1007;-75
2022/05/08 00:23:38;;;;;;;;;;;;;;;21.88;27.71;98555.34;4996275;28;1077;-75
2022/05/08 00:26:07;;;;;;;;;;;;;;;21.43;28.50;98548.03;4996200;28;1984;-75
2022/05/08 00:28:33;;;;;;;;;;;;;;;21.29;28.55;98562.38;4979897;28;1073;-75
2022/05/08 00:30:58;;;;;;;;;;;;;;;21.21;28.66;98558.88;4995285;28;2080;-75
2022/05/08 00:33:24;;;;;;;;;;;;;;;21.35;28.84;98551.41;4990908;28;1859;-75
2022/05/08 00:35:50;;;;;;;;;;;;;;;21.42;28.71;98542.81;4976591;28;983;-75
2022/05/08 00:38:15;;;;;;;;;;;;;;;21.24;28.75;98543.88;4976275;28;1079;-75
2022/05/08 00:40:41;;;;;;;;;;;;;;;21.61;28.25;98536.41;4976596;28;986;-75
2022/05/08 00:43:25;;;;;;;;;;;;;;;21.89;27.82;98534.25;4976230;28;1029;-75
2022/05/08 00:45:51;;;;;;;;;;;;;;;21.64;28.10;98535.53;4998958;28;1985;-75
2022/05/08 00:48:16;;;;;;;;;;;;;;;21.38;28.73;98533.56;5021669;28;2033;-75
2022/05/08 00:50:42;;;;;;;;;;;;;;;21.26;28.51;98546.28;5037461;28;962;-75
2022/05/08 00:53:07;;;;;;;;;;;;;;;21.43;28.66;98538.75;5018391;28;910;-75
2022/05/08 00:55:32;;;;;;;;;;;;;;;21.73;28.27;98532.13;5037003;28;983;-75
2022/05/08 00:58:00;;;;;;;;;;;;;;;21.84;28.10;98529.91;5036398;28;2096;-75
2022/05/08 01:00:25;;;;;;;;;;;;;;;21.53;28.32;98534.91;5037565;28;1991;-75
2022/05/08 01:02:51;;;;;;;;;;;;;;;21.45;28.24;98524.94;5036673;28;1047;-75
2022/05/08 01:05:37;;;;;;;;;;;;;;;21.30;28.64;98533.69;5014708;28;1906;-75
2022/05/08 01:08:03;;;;;;;;;;;;;;;21.56;28.53;98528.41;5014977;28;1082;-75
2022/05/08 01:10:28;;;;;;;;;;;;;;;21.65;28.49;98528.63;4995083;28;978;-75
2022/05/08 01:12:54;;;;;;;;;;;;;;;21.94;28.01;98528.88;4995160;28;1037;-75
2022/05/08 01:15:20;;;;;;;;;;;;;;;21.57;28.12;98527.16;4986209;28;2142;-75
2022/05/08 01:17:46;;;;;;;;;;;;;;;21.23;28.70;98533.78;4975625;28;990;-75
2022/05/08 01:20:12;;;;;;;;;;;;;;;21.17;28.74;98535.50;4975863;28;982;-75
2022/05/08 01:22:37;;;;;;;;;;;;;;;21.27;28.63;98537.34;4975803;28;1016;-75
2022/05/08 01:25:03;;;;;;;;;;;;;;;21.25;28.79;98534.16;4975544;28;1911;-75
2022/05/08 01:27:28;;;;;;;;;;;;;;;21.33;28.80;98535.66;4959202;28;972;-75
2022/05/08 01:29:53;;;;;;;;;;;;;;;21.30;28.68;98539.38;4975471;28;2141;-75
2022/05/08 01:32:19;;;;;;;;;;;;;;;21.46;28.50;98530.19;4975637;28;999;-75
2022/05/08 01:34:45;;;;;;;;;;;;;;;21.82;28.22;98536.00;4975357;28;997;-75
2022/05/08 01:37:10;;;;;;;;;;;;;;;21.63;28.10;98533.13;4917761;29;983;-75
2022/05/08 01:39:35;;;;;;;;;;;;;;;21.46;28.55;98533.03;4916823;29;1810;-75
2022/05/08 01:42:04;;;;;;;;;;;;;;;21.42;28.33;98534.31;4918071;29;1086;-75
2022/05/08 01:44:30;;;;;;;;;;;;;;;21.28;28.68;98536.13;4917980;29;1910;-75
2022/05/08 01:49:40;;;;;;;;;;;;;;;21.75;28.21;98527.63;4956054;29;1157;-75
2022/05/08 01:52:06;;;;;;;;;;;;;;;21.59;27.98;98527.53;4956222;29;965;-75
2022/05/08 01:54:31;;;;;;;;;;;;;;;21.41;28.45;98529.88;4923382;29;2160;-75
2022/05/08 01:56:56;;;;;;;;;;;;;;;21.20;28.63;98531.81;4956085;29;1003;-75
2022/05/08 01:59:22;;;;;;;;;;;;;;;21.33;28.96;98532.81;4955181;28;2024;-75
2022/05/08 02:01:47;;;;;;;;;;;;;;;21.74;28.25;98534.53;4955606;28;2071;-75
2022/05/08 02:04:15;;;;;;;;;;;;;;;21.87;27.89;98531.88;4955624;28;2259;-75
2022/05/08 02:06:41;;;;;;;;;;;;;;;21.64;28.30;98535.53;4939747;29;1974;-75
2022/05/08 02:09:06;;;;;;;;;;;;;;;21.49;28.24;98534.19;4990380;28;1015;-75
2022/05/08 02:11:32;;;;;;;;;;;;;;;21.30;28.35;98539.38;4994294;28;965;-75
2022/05/08 02:13:58;;;;;;;;;;;;;;;21.24;28.63;98535.41;5004286;28;2166;-75
2022/05/08 02:16:24;;;;;;;;;;;;;;;21.57;28.66;98532.84;5010480;28;2131;-75
2022/05/08 02:18:50;;;;;;;;;;;;;;;21.87;27.87;98531.06;5020416;28;939;-75
2022/05/08 02:21:15;;;;;;;;;;;;;;;21.61;27.92;98527.91;5020489;28;905;-75
2022/05/08 02:23:40;;;;;;;;;;;;;;;21.42;28.27;98534.31;5018787;28;937;-75
2022/05/08 02:26:06;;;;;;;;;;;;;;;21.32;28.58;98527.59;5019790;28;1898;-75
2022/05/08 02:28:31;;;;;;;;;;;;;;;21.26;28.67;98510.28;5020267;28;903;-75
2022/05/08 02:30:57;;;;;;;;;;;;;;;21.54;28.61;98513.88;5031620;28;2088;-75
2022/05/08 02:33:22;;;;;;;;;;;;;;;21.79;28.24;98519.06;5040137;28;900;-75
2022/05/08 02:35:48;;;;;;;;;;;;;;;21.66;27.85;98530.25;5039929;28;916;-75
2022/05/08 02:38:13;;;;;;;;;;;;;;;21.42;28.55;98523.00;5039599;28;1007;-75
2022/05/08 02:40:39;;;;;;;;;;;;;;;21.38;28.39;98522.25;5039779;28;909;-75
2022/05/08 02:43:04;;;;;;;;;;;;;;;21.38;28.56;98527.91;5020205;28;2206;-75
2022/05/08 02:45:30;;;;;;;;;;;;;;;21.52;28.58;98527.66;5038997;28;2050;-75
2022/05/08 02:47:56;;;;;;;;;;;;;;;21.83;28.04;98531.94;5039193;28;1240;-75
2022/05/08 02:50:22;;;;;;;;;;;;;;;21.63;28.30;98528.25;5039813;28;936;-75
2022/05/08 02:52:47;;;;;;;;;;;;;;;21.46;28.30;98530.19;5039209;28;935;-75
2022/05/08 03:00:41;;;;;;;;;;;;;;;21.61;28.75;98541.28;5020139;28;2030;-75
2022/05/08 03:03:06;;;;;;;;;;;;;;;21.63;28.59;98545.25;5038940;28;1024;-75
2022/05/08 03:05:32;;;;;;;;;;;;;;;21.66;28.25;98541.56;5039304;28;1968;-75
2022/05/08 03:07:58;;;;;;;;;;;;;;;21.36;28.61;98541.69;5038937;28;1234;-75
2022/05/08 03:10:23;;;;;;;;;;;;;;;21.31;28.57;98535.28;5039367;28;855;-75
2022/05/08 03:12:49;;;;;;;;;;;;;;;21.38;28.56;98547.72;5039186;28;1056;-75
2022/05/08 03:15:14;;;;;;;;;;;;;;;21.48;28.83;98536.22;5038201;28;1856;-75
2022/05/08 03:17:39;;;;;;;;;;;;;;;21.58;28.40;98540.88;5038777;28;923;-75
2022/05/08 03:20:05;;;;;;;;;;;;;;;21.89;27.99;98545.59;5038673;28;931;-75
2022/05/08 03:22:31;;;;;;;;;;;;;;;21.91;28.10;98537.44;5038991;28;1032;-75
2022/05/08 03:24:56;;;;;;;;;;;;;;;21.66;28.42;98540.75;5019686;28;1971;-75
2022/05/08 03:27:22;;;;;;;;;;;;;;;21.39;28.55;98535.97;5037677;28;1004;-75
2022/05/08 03:29:47;;;;;;;;;;;;;;;21.47;28.43;98536.66;5038175;28;2030;-75
2022/05/08 03:32:12;;;;;;;;;;;;;;;21.34;28.68;98530.78;5038584;28;1002;-75
2022/05/08 03:34:38;;;;;;;;;;;;;;;21.38;28.59;98547.72;4996801;28;1602;-75
2022/05/08 03:37:04;;;;;;;;;;;;;;;21.51;28.82;98543.06;4996886;28;1027;-75
2022/05/08 03:39:29;;;;;;;;;;;;;;;21.41;28.59;98549.69;4997293;28;1028;-75
2022/05/08 03:41:55;;;;;;;;;;;;;;;21.37;28.67;98548.97;4957862;29;1023;-75
2022/05/08 03:44:20;;;;;;;;;;;;;;;21.10;29.37;98546.16;4957487;28;2124;-74
2022/05/08 03:46:45;;;;;;;;;;;;;;;21.24;29.07;98541.06;4958063;29;1910;-75
2022/05/08 03:49:11;;;;;;;;;;;;;;;21.37;28.84;98537.63;4957786;29;1043;-75
2022/05/08 03:51:36;;;;;;;;;;;;;;;21.73;28.22;98538.59;4957776;29;1018;-75
2022/05/08 03:54:02;;;;;;;;;;;;;;;21.79;27.97;98534.03;4919253;29;2633;-75
2022/05/08 03:56:28;;;;;;;;;;;;;;;21.58;28.35;98545.75;4919597;29;1179;-75
2022/05/08 03:58:53;;;;;;;;;;;;;;;21.37;28.76;98543.28;4916513;29;2230;-75
2022/05/08 04:01:18;;;;;;;;;;;;;;;21.36;28.49;98550.19;4919909;29;959;-75
2022/05/08 04:03:44;;;;;;;;;;;;;;;21.35;28.96;98557.06;4919583;29;1252;-75
2022/05/08 04:06:09;;;;;;;;;;;;;;;21.70;28.30;98555.66;4933170;29;1976;-75
2022/05/08 04:08:35;;;;;;;;;;;;;;;21.89;27.87;98554.88;4938561;29;940;-75
2022/05/08 04:11:01;;;;;;;;;;;;;;;21.65;27.91;98558.97;4938317;29;956;-74
2022/05/08 04:13:27;;;;;;;;;;;;;;;21.59;27.86;98558.66;4920296;29;956;-75
2022/05/08 04:18:53;;;;;;;;;;;;;;;21.62;28.67;98554.19;4938263;29;1125;-75
2022/05/08 04:21:19;;;;;;;;;;;;;;;21.77;28.37;98561.19;4938227;29;972;-75
2022/05/08 04:26:30;;;;;;;;;;;;;;;21.26;28.65;98561.22;4938083;29;1911;-75
2022/05/08 04:28:56;;;;;;;;;;;;;;;21.42;28.23;98562.63;4937941;29;1120;-75
2022/05/08 04:31:22;;;;;;;;;;;;;;;21.33;28.42;98566.78;4938432;29;950;-75
2022/05/08 04:33:48;;;;;;;;;;;;;;;21.57;29.22;98569.63;4918535;29;1100;-75
2022/05/08 04:36:13;;;;;;;;;;;;;;;21.68;28.50;98570.25;4918840;29;924;-75
2022/05/08 04:38:39;;;;;;;;;;;;;;;21.84;28.41;98567.53;4918546;29;997;-75
2022/05/08 04:41:05;;;;;;;;;;;;;;;21.49;28.55;98576.66;4918903;29;952;-75
2022/05/08 04:43:30;;;;;;;;;;;;;;;21.38;28.49;98568.34;4918853;29;1052;-75
2022/05/08 04:45:56;;;;;;;;;;;;;;;21.42;28.72;98568.28;4919006;29;1975;-75
2022/05/08 04:48:21;;;;;;;;;;;;;;;21.67;28.77;98568.66;4918258;29;1207;-75
2022/05/08 04:50:46;;;;;;;;;;;;;;;21.85;28.43;98569.13;4918781;29;938;-75
2022/05/08 04:53:12;;;;;;;;;;;;;;;21.93;28.34;98566.97;4980826;28;1043;-75
2022/05/08 04:55:38;;;;;;;;;;;;;;;21.46;28.50;98561.34;5015158;28;980;-75
2022/05/08 04:58:03;;;;;;;;;;;;;;;21.54;28.55;98559.16;5014748;28;1174;-75
2022/05/08 05:00:29;;;;;;;;;;;;;;;21.31;28.72;98572.09;5014760;28;998;-75
2022/05/08 05:02:55;;;;;;;;;;;;;;;21.39;28.57;98581.25;5015080;28;1006;-75
2022/05/08 05:05:20;;;;;;;;;;;;;;;21.24;28.92;98575.03;5014724;28;1902;-75
2022/05/08 05:07:46;;;;;;;;;;;;;;;21.57;29.25;98580.97;5014884;28;1065;-75
2022/05/08 05:10:12;;;;;;;;;;;;;;;21.87;28.62;98579.22;5014655;28;1057;-75
2022/05/08 05:12:38;;;;;;;;;;;;;;;21.78;28.17;98579.78;5014344;28;894;-75
2022/05/08 05:15:05;;;;;;;;;;;;;;;21.57;28.73;98580.97;5014893;28;925;-75
2022/05/08 05:17:30;;;;;;;;;;;;;;;21.35;29.02;98579.72;5014672;28;1028;-75
2022/05/08 05:19:55;;;;;;;;;;;;;;;21.35;28.87;98588.19;5014551;28;1089;-75
2022/05/08 05:22:21;;;;;;;;;;;;;;;21.30;28.92;98583.84;5014827;28;1044;-75
2022/05/08 05:24:47;;;;;;;;;;;;;;;21.58;29.07;98594.69;5014893;28;1894;-75
2022/05/08 05:27:12;;;;;;;;;;;;;;;21.99;28.22;98589.91;5014570;28;973;-75
2022/05/08 05:29:39;;;;;;;;;;;;;;;21.79;28.50;98587.06;5014414;28;1313;-75
2022/05/08 05:32:04;;;;;;;;;;;;;;;21.35;29.24;98588.19;5014181;28;960;-75
2022/05/08 05:34:30;;;;;;;;;;;;;;;21.43;28.71;98592.53;5014387;28;1019;-75
2022/05/08 05:36:55;;;;;;;;;;;;;;;21.39;28.79;98586.91;5014384;28;994;-75
2022/05/08 05:39:21;;;;;;;;;;;;;;;21.63;28.99;98590.56;5014415;28;1005;-75
2022/05/08 05:41:47;;;;;;;;;;;;;;;21.79;28.49;98582.19;5014407;28;983;-75
2022/05/08 05:44:12;;;;;;;;;;;;;;;21.86;28.41;98586.91;5001141;28;1628;-75
2022/05/08 05:49:22;;;;;;;;;;;;;;;21.36;28.72;98592.66;5035074;28;1232;-75
2022/05/08 05:51:47;;;;;;;;;;;;;;;21.32;28.84;98593.50;5036458;28;954;-75
2022/05/08 05:54:12;;;;;;;;;;;;;;;21.41;28.65;98590.13;5036254;28;946;-75
2022/05/08 05:56:39;;;;;;;;;;;;;;;21.32;28.94;98587.84;5035944;28;906;-75
2022/05/08 05:59:04;;;;;;;;;;;;;;;21.24;29.36;98589.16;5036428;28;970;-76
2022/05/08 06:01:30;;;;;;;;;;;;;;;21.32;29.16;98596.34;5036058;28;906;-75
2022/05/08 06:03:55;;;;;;;;;;;;;;;21.18;29.67;98588.03;5035995;28;917;-76
2022/05/08 06:06:21;;;;;;;;;;;;;;;21.24;29.39;98592.00;5036096;28;1910;-76
2022/05/08 06:08:47;;;;;;;;;;;;;;;21.70;28.68;98592.47;5036228;28;920;-75
2022/05/08 06:11:12;;;;;;;;;;;;;;;21.89;28.48;98596.59;5036054;28;1135;-76
2022/05/08 06:13:38;;;;;;;;;;;;;;;21.61;28.39;98587.38;5036332;28;976;-76
2022/05/08 06:16:03;;;;;;;;;;;;;;;21.47;28.97;98585.59;5036437;28;988;-77
2022/05/08 06:18:29;;;;;;;;;;;;;;;21.50;28.92;98592.41;5035895;28;920;-76
2022/05/08 06:20:54;;;;;;;;;;;;;;;21.08;29.94;98594.66;5036260;28;929;-76
2022/05/08 06:23:20;;;;;;;;;;;;;;;21.77;28.88;98590.31;5013826;28;1035;-76
2022/05/08 06:25:47;;;;;;;;;;;;;;;21.86;28.31;98592.56;5013990;28;1895;-76
2022/05/08 06:28:18;;;;;;;;;;;;;;;21.58;28.85;98593.88;4997250;28;1015;-76
2022/05/08 06:30:44;;;;;;;;;;;;;;;21.33;29.30;98595.09;5014107;28;975;-76
2022/05/08 06:33:09;;;;;;;;;;;;;;;21.35;29.23;98597.53;5014192;28;1008;-76
2022/05/08 06:35:37;;;;;;;;;;;;;;;21.38;29.04;98595.84;5013901;28;1059;-76
2022/05/08 06:38:02;;;;;;;;;;;;;;;21.41;29.20;98600.66;5013272;28;1454;-75
2022/05/08 06:40:28;;;;;;;;;;;;;;;21.91;28.73;98600.56;5014246;28;1100;-76
2022/05/08 06:42:53;;;;;;;;;;;;;;;22.05;28.18;98599.53;5013586;28;1243;-76
2022/05/08 06:45:24;;;;;;;;;;;;;;;21.74;28.35;98604.53;5013738;28;1906;-76
2022/05/08 06:47:49;;;;;;;;;;;;;;;21.49;28.94;98602.13;5013476;28;1077;-76
2022/05/08 06:50:15;;;;;;;;;;;;;;;21.50;28.81;98600.91;5013970;28;1234;-76
2022/05/08 06:52:40;;;;;;;;;;;;;;;21.50;28.65;98598.06;5013615;28;1019;-76
2022/05/08 06:55:06;;;;;;;;;;;;;;;21.29;29.40;98594.31;5031726;28;957;-76
2022/05/08 06:57:31;;;;;;;;;;;;;;;21.27;29.14;98596.78;5017185;28;957;-76
2022/05/08 07:02:44;;;;;;;;;;;;;;;21.41;29.43;98612.00;5024282;28;941;-76
2022/05/08 07:05:09;;;;;;;;;;;;;;;21.75;28.75;98614.63;5038731;28;1894;-77
2022/05/08 07:07:35;;;;;;;;;;;;;;;22.01;28.59;98608.06;5016819;28;1081;-76
2022/05/08 07:10:00;;;;;;;;;;;;;;;21.49;29.02;98602.13;5017425;28;1298;-76
2022/05/08 07:12:26;;;;;;;;;;;;;;;21.41;29.26;98601.47;5017015;28;989;-77
2022/05/08 07:14:53;;;;;;;;;;;;;;;21.29;29.40;98605.63;5016851;28;967;-76
2022/05/08 07:17:19;;;;;;;;;;;;;;;21.27;29.58;98607.31;5016927;28;1073;-76
2022/05/08 07:19:45;;;;;;;;;;;;;;;21.41;29.71;98600.66;5000478;28;1017;-76
2022/05/08 07:22:10;;;;;;;;;;;;;;;21.76;28.88;98611.38;5016737;28;1049;-76
2022/05/08 07:24:38;;;;;;;;;;;;;;;21.94;28.40;98610.25;5016830;28;1013;-76
2022/05/08 07:27:03;;;;;;;;;;;;;;;21.57;29.07;98609.28;5016843;28;1014;-77
2022/05/08 07:29:29;;;;;;;;;;;;;;;21.38;29.07;98607.97;5016800;28;1088;-76
2022/05/08 07:31:54;;;;;;;;;;;;;;;21.27;29.48;98608.09;5016906;28;965;-76
2022/05/08 07:37:04;;;;;;;;;;;;;;;21.34;29.48;98607.22;5016758;28;971;-76
2022/05/08 07:39:29;;;;;;;;;;;;;;;21.69;28.92;98617.16;5036178;28;981;-76
2022/05/08 07:41:55;;;;;;;;;;;;;;;21.82;28.67;98618.16;5016552;28;1162;-76
2022/05/08 07:44:20;;;;;;;;;;;;;;;21.66;28.76;98618.03;5016170;28;1008;-76
2022/05/08 07:46:46;;;;;;;;;;;;;;;21.49;28.91;98619.13;5016420;28;1918;-76
2022/05/08 07:49:11;;;;;;;;;;;;;;;21.40;29.36;98616.03;5016125;28;1247;-76
2022/05/08 07:51:37;;;;;;;;;;;;;;;21.36;29.47;98621.75;5016731;28;964;-77
2022/05/08 07:54:02;;;;;;;;;;;;;;;21.24;29.31;98625.97;5016049;28;1013;-76
2022/05/08 07:56:28;;;;;;;;;;;;;;;21.22;29.56;98627.59;5016250;28;978;-76
2022/05/08 07:58:54;;;;;;;;;;;;;;;21.47;29.70;98613.09;5016262;28;1055;-76
2022/05/08 08:01:19;;;;;;;;;;;;;;;21.62;29.46;98620.13;5016036;28;1110;-76
2022/05/08 08:03:44;;;;;;;;;;;;;;;21.60;29.18;98619.72;5015835;28;1310;-77
2022/05/08 08:06:10;;;;;;;;;;;;;;;21.43;29.44;98615.97;5016178;28;1989;-76
2022/05/08 08:08:35;;;;;;;;;;;;;;;21.29;29.31;98628.28;5016271;28;1064;-76
2022/05/08 08:11:03;;;;;;;;;;;;;;;21.37;29.35;98622.56;5015973;28;953;-75
2022/05/08 08:13:29;;;;;;;;;;;;;;;21.44;29.18;98628.09;5031567;28;1223;-76
2022/05/08 08:15:56;;;;;;;;;;;;;;;21.47;29.59;98624.41;5038074;28;1061;-77
2022/05/08 08:18:21;;;;;;;;;;;;;;;21.89;28.75;98619.25;5037764;28;927;-77
2022/05/08 08:20:47;;;;;;;;;;;;;;;21.92;28.59;98636.19;5037425;28;971;-76
2022/05/08 08:23:12;;;;;;;;;;;;;;;21.54;29.31;98629.97;5037999;28;1005;-76
2022/05/08 08:25:38;;;;;;;;;;;;;;;21.42;29.27;98625.69;5038006;28;1977;-76
2022/05/08 08:28:03;;;;;;;;;;;;;;;21.43;29.39;98620.84;5037839;28;920;-76
2022/05/08 08:30:29;;;;;;;;;;;;;;;21.31;29.76;98622.25;5037876;28;933;-76
2022/05/08 08:32:54;;;;;;;;;;;;;;;21.24;29.74;98625.97;5037381;28;1023;-76
2022/05/08 08:35:20;;;;;;;;;;;;;;;21.45;29.84;98626.84;5037653;28;899;-76
2022/05/08 08:37:45;;;;;;;;;;;;;;;21.79;29.17;98627.50;5037365;28;997;-76
2022/05/08 08:40:11;;;;;;;;;;;;;;;21.91;28.96;98623.25;5037428;28;938;-77
2022/05/08 08:42:38;;;;;;;;;;;;;;;21.43;29.56;98627.31;5019053;28;979;-76
2022/05/08 08:48:14;;;;;;;;;;;;;;;21.31;29.49;98631.53;5037377;28;1073;-76
2022/05/08 08:50:40;;;;;;;;;;;;;;;21.49;29.85;98624.78;4995697;28;1074;-76
2022/05/08 08:53:08;;;;;;;;;;;;;;;21.75;29.48;98626.75;4976257;28;1071;-76
2022/05/08 08:55:33;;;;;;;;;;;;;;;21.88;28.94;98626.97;4976204;28;1070;-76
2022/05/08 08:57:59;;;;;;;;;;;;;;;21.62;29.16;98625.78;4976053;28;1229;-76
2022/05/08 09:00:24;;;;;;;;;;;;;;;21.54;29.41;98627.13;4975868;28;1019;-77
2022/05/08 09:02:54;;;;;;;;;;;;;;;21.31;29.60;98625.06;4975996;28;1034;-76
2022/05/08 09:05:24;;;;;;;;;;;;;;;21.39;29.39;98620.88;4956453;29;1993;-76
2022/05/08 09:07:50;;;;;;;;;;;;;;;21.53;29.50;98626.31;4937220;29;1054;-76
2022/05/08 09:10:18;;;;;;;;;;;;;;;21.40;29.35;98627.34;4937515;29;983;-76
2022/05/08 09:12:53;;;;;;;;;;;;;;;21.40;29.73;98627.34;4937522;29;999;-76
2022/05/08 09:15:18;;;;;;;;;;;;;;;21.35;29.55;98636.31;4937307;29;960;-76
2022/05/08 09:17:44;;;;;;;;;;;;;;;21.51;29.61;98622.34;4937043;29;1000;-76
2022/05/08 09:20:29;;;;;;;;;;;;;;;21.94;28.87;98627.25;4937308;29;1034;-76
2022/05/08 09:23:01;;;;;;;;;;;;;;;21.65;29.23;98632.59;4918024;29;1015;-76
2022/05/08 09:25:44;;;;;;;;;;;;;;;21.52;29.54;98632.44;4921054;29;1988;-77
2022/05/08 09:28:16;;;;;;;;;;;;;;;21.35;29.50;98636.31;4952624;29;884;-76
2022/05/08 09:30:57;;;;;;;;;;;;;;;21.33;29.85;98634.72;4956349;29;934;-76
2022/05/08 09:33:23;;;;;;;;;;;;;;;21.77;29.25;98629.97;4917552;29;966;-76
2022/05/08 09:35:48;;;;;;;;;;;;;;;21.95;28.81;98634.53;4923238;29;981;-76
2022/05/08 09:38:13;;;;;;;;;;;;;;;21.76;28.89;98633.22;4936662;29;989;-76
2022/05/08 09:40:39;;;;;;;;;;;;;;;21.45;29.31;98624.84;4921108;29;968;-76
2022/05/08 09:43:05;;;;;;;;;;;;;;;21.41;29.48;98628.97;4921390;29;946;-76
2022/05/08 09:45:31;;;;;;;;;;;;;;;21.32;29.69;98623.84;4932703;29;1910;-77
2022/05/08 09:47:57;;;;;;;;;;;;;;;21.37;29.76;98622.56;4939708;29;1343;-76
2022/05/08 09:50:22;;;;;;;;;;;;;;;21.36;29.50;98620.97;4955970;29;880;-76
2022/05/08 09:52:48;;;;;;;;;;;;;;;21.35;29.78;98614.50;4918518;29;1022;-76
2022/05/08 09:55:19;;;;;;;;;;;;;;;21.60;29.79;98619.72;4861592;29;1002;-76
2022/05/08 09:57:44;;;;;;;;;;;;;;;21.69;29.30;98617.16;4880138;29;964;-77
2022/05/08 10:00:10;;;;;;;;;;;;;;;21.69;29.52;98611.50;4879769;29;1096;-76
2022/05/08 10:02:38;;;;;;;;;;;;;;;21.55;29.42;98617.38;4879988;29;1080;-77
2022/05/08 10:05:04;;;;;;;;;;;;;;;21.52;29.76;98612.59;4894800;29;1918;-76
2022/05/08 10:07:30;;;;;;;;;;;;;;;21.41;29.57;98612.00;4880014;29;1021;-77
2022/05/08 10:15:31;;;;;;;;;;;;;;;21.64;29.80;98611.97;4897441;29;2061;-76
2022/05/08 10:18:15;;;;;;;;;;;;;;;21.81;29.21;98613.72;4898562;29;982;-76
2022/05/08 10:21:00;;;;;;;;;;;;;;;21.59;29.34;98615.31;4898610;29;1115;-76
2022/05/08 10:23:47;;;;;;;;;;;;;;;21.45;29.82;98602.22;4904656;29;1051;-76
2022/05/08 10:26:17;;;;;;;;;;;;;;;21.42;29.85;98607.91;4926878;29;1922;-76
2022/05/08 10:29:01;;;;;;;;;;;;;;;21.42;29.63;98610.75;4936492;29;932;-76
2022/05/08 10:31:41;;;;;;;;;;;;;;;21.29;29.81;98599.97;4936642;29;975;-76
2022/05/08 10:34:06;;;;;;;;;;;;;;;21.49;29.79;98608.59;4936441;29;1009;-76
2022/05/08 10:36:32;;;;;;;;;;;;;;;21.67;29.71;98611.13;4940938;28;930;-76
2022/05/08 10:39:16;;;;;;;;;;;;;;;21.84;29.46;98612.84;4962738;28;966;-75
2022/05/08 10:41:44;;;;;;;;;;;;;;;21.41;29.61;98595.78;4962919;28;1009;-76
2022/05/08 10:44:29;;;;;;;;;;;;;;;21.43;29.87;98613.16;4962460;28;987;-76
2022/05/08 10:47:15;;;;;;;;;;;;;;;21.37;29.99;98599.91;5012261;28;1930;-76
2022/05/08 10:49:41;;;;;;;;;;;;;;;21.51;29.51;98599.69;5017370;28;1248;-76
2022/05/08 10:52:07;;;;;;;;;;;;;;;21.74;29.62;98602.50;5019811;28;929;-76
2022/05/08 10:54:33;;;;;;;;;;;;;;;21.93;29.03;98608.66;5019954;28;1172;-76
2022/05/08 10:56:58;;;;;;;;;;;;;;;21.57;29.59;98592.28;5017323;28;986;-76
2022/05/08 10:59:43;;;;;;;;;;;;;;;21.60;29.41;98597.06;5017087;28;981;-76
2022/05/08 11:02:08;;;;;;;;;;;;;;;21.33;29.79;98592.25;5017277;28;1051;-76
2022/05/08 11:04:49;;;;;;;;;;;;;;;21.39;30.10;98588.94;5017290;28;1003;-76
2022/05/08 11:07:20;;;;;;;;;;;;;;;21.37;29.96;98594.25;5017329;28;990;-76
2022/05/08 11:09:46;;;;;;;;;;;;;;;21.51;30.13;98577.84;4977908;28;948;-76
2022/05/08 11:12:11;;;;;;;;;;;;;;;21.82;29.34;98581.31;4978220;28;1127;-76
2022/05/08 11:14:37;;;;;;;;;;;;;;;21.59;29.81;98579.28;4961820;28;914;-76
2022/05/08 11:17:15;;;;;;;;;;;;;;;21.53;29.63;98580.22;4961362;28;1067;-76
2022/05/08 11:19:50;;;;;;;;;;;;;;;21.45;29.66;98578.72;4977858;28;1021;-76
2022/05/08 11:22:16;;;;;;;;;;;;;;;21.30;30.01;98581.81;4978207;28;1085;-76
2022/05/08 11:24:42;;;;;;;;;;;;;;;21.35;30.23;98574.88;4961518;28;995;-76
2022/05/08 11:27:14;;;;;;;;;;;;;;;21.46;29.70;98586.81;4977515;28;1987;-75
2022/05/08 11:29:48;;;;;;;;;;;;;;;21.25;30.10;98587.94;4957920;29;989;-76
2022/05/08 11:38:02;;;;;;;;;;;;;;;21.95;29.21;98580.69;4939102;29;1059;-76
2022/05/08 11:40:28;;;;;;;;;;;;;;;21.46;30.04;98575.50;4939398;29;968;-76
2022/05/08 11:42:53;;;;;;;;;;;;;;;21.38;30.04;98576.03;4901160;29;956;-76
2022/05/08 11:45:20;;;;;;;;;;;;;;;21.33;29.97;98575.28;4901114;29;1903;-76
2022/05/08 11:47:53;;;;;;;;;;;;;;;21.42;29.68;98576.78;4915436;29;1239;-76
2022/05/08 11:50:19;;;;;;;;;;;;;;;21.42;29.73;98576.78;4938849;29;1011;-76
2022/05/08 11:52:47;;;;;;;;;;;;;;;21.42;29.85;98579.59;4919694;29;916;-76
2022/05/08 11:55:13;;;;;;;;;;;;;;;21.40;30.30;98570.72;4919591;29;990;-76
2022/05/08 11:57:42;;;;;;;;;;;;;;;21.76;29.43;98571.72;4919579;29;1165;-76
2022/05/08 12:00:11;;;;;;;;;;;;;;;21.87;29.55;98565.06;4925026;29;1008;-76
2022/05/08 12:02:46;;;;;;;;;;;;;;;21.44;30.01;98565.81;4932553;29;993;-76
2022/05/08 12:05:21;;;;;;;;;;;;;;;21.44;29.62;98560.16;4919110;29;1899;-76
2022/05/08 12:07:47;;;;;;;;;;;;;;;21.32;29.67;98559.53;4919691;29;1060;-76
2022/05/08 12:10:12;;;;;;;;;;;;;;;21.41;29.84;98566.69;4919409;29;986;-76
2022/05/08 12:12:38;;;;;;;;;;;;;;;21.37;29.95;98565.94;4919568;29;949;-76
2022/05/08 12:15:07;;;;;;;;;;;;;;;21.24;29.89;98569.34;4938283;29;1129;-76
2022/05/08 12:17:44;;;;;;;;;;;;;;;21.54;30.30;98564.81;4938525;29;1030;-76
2022/05/08 12:20:10;;;;;;;;;;;;;;;22.03;28.97;98556.66;4939710;28;919;-76
2022/05/08 12:22:35;;;;;;;;;;;;;;;21.97;29.31;98547.06;4978129;28;1008;-76
2022/05/08 12:25:01;;;;;;;;;;;;;;;21.49;29.57;98554.00;5034957;28;1971;-76
2022/05/08 12:27:26;;;;;;;;;;;;;;;21.49;29.76;98551.97;5015482;28;1008;-76
2022/05/08 12:29:53;;;;;;;;;;;;;;;21.33;29.91;98549.00;5015519;28;1077;-75
2022/05/08 12:32:19;;;;;;;;;;;;;;;21.46;29.32;98546.38;5015579;28;1033;-75
2022/05/08 12:34:45;;;;;;;;;;;;;;;21.30;29.59;98538.56;5015747;28;942;-76
2022/05/08 12:37:10;;;;;;;;;;;;;;;21.41;30.31;98541.22;4995686;28;1006;-76
2022/05/08 12:39:36;;;;;;;;;;;;;;;21.72;29.58;98542.66;4995482;28;1509;-76
2022/05/08 12:42:02;;;;;;;;;;;;;;;21.87;29.35;98553.75;4979575;28;1046;-76
2022/05/08 12:44:27;;;;;;;;;;;;;;;21.97;29.05;98541.41;4963298;28;1036;-76
2022/05/08 12:46:53;;;;;;;;;;;;;;;21.75;29.26;98526.81;4995520;28;1906;-76
2022/05/08 12:49:18;;;;;;;;;;;;;;;21.54;29.78;98528.03;4956886;29;1091;-76
2022/05/08 12:51:45;;;;;;;;;;;;;;;21.53;29.61;98524.38;4941183;29;1030;-76
2022/05/08 12:54:11;;;;;;;;;;;;;;;21.46;29.65;98535.06;4940903;29;973;-76
2022/05/08 12:56:37;;;;;;;;;;;;;;;21.45;29.71;98524.94;4923135;29;982;-76
2022/05/08 13:01:46;;;;;;;;;;;;;;;21.17;30.17;98518.50;4880878;29;1524;-76
2022/05/08 13:04:11;;;;;;;;;;;;;;;21.36;29.81;98519.06;4880641;29;982;-76
2022/05/08 13:06:37;;;;;;;;;;;;;;;21.59;29.87;98510.53;4880510;29;1914;-76
2022/05/08 13:09:03;;;;;;;;;;;;;;;22.03;28.96;98517.78;4896850;29;1104;-76
2022/05/08 13:11:29;;;;;;;;;;;;;;;21.62;29.64;98515.34;4899196;29;1235;-76
2022/05/08 13:13:54;;;;;;;;;;;;;;;21.48;29.78;98507.09;4899323;29;1067;-76
2022/05/08 13:16:20;;;;;;;;;;;;;;;21.45;30.04;98510.78;4899021;29;1085;-76
2022/05/08 13:18:45;;;;;;;;;;;;;;;21.14;30.37;98508.06;4899269;29;931;-76
2022/05/08 13:21:12;;;;;;;;;;;;;;;21.39;29.87;98504.03;4948712;29;974;-76
2022/05/08 13:23:37;;;;;;;;;;;;;;;21.60;29.82;98506.47;4956342;29;986;-76
2022/05/08 13:26:03;;;;;;;;;;;;;;;21.83;29.64;98506.44;4956280;29;1974;-76
2022/05/08 13:28:31;;;;;;;;;;;;;;;21.74;29.22;98505.41;4972633;28;1008;-76
2022/05/08 13:30:57;;;;;;;;;;;;;;;21.53;29.79;98501.75;4992793;28;995;-76
2022/05/08 13:33:24;;;;;;;;;;;;;;;21.41;29.79;98507.25;5029207;28;991;-76
2022/05/08 13:35:53;;;;;;;;;;;;;;;21.58;29.68;98503.28;5034299;28;1021;-76
2022/05/08 13:38:20;;;;;;;;;;;;;;;21.42;29.63;98500.34;5034058;28;1040;-76